Terminal Aerodrome Forecast
Issued by NWS

Home | Current Version | Previous Version | Text Only | Print | Product List | Glossary On
Versions: 1 2 3 4 5 6 7 8 9 10 11 12 13 14 15 16 17
000
FTUS46 KHNX 190748 AAB
TAFMER
TAF AMD
KMER 190748Z 1908/2006 00000KT 2SM BR FEW200
      TEMPO 1908/1912 1/4SM FG VV002
     FM191200 00000KT 1/4SM FG VV002
     FM191700 00000KT 1SM BR BKN005
     FM191900 32004KT P6SM SKC=

USA.gov is the U.S. government's official web portal to all federal, state and local government web resources and services.